TimeEDT,TemperatureF,Dew PointF,Humidity,Sea Level PressureIn,VisibilityMPH,Wind Direction,Wind SpeedMPH,Gust SpeedMPH,PrecipitationIn,Events,Conditions,WindDirDegrees,DateUTC
12:15 AM,57.2,48.2,72,30.20,10.0,ESE,4.6,-,N/A,,Clear,120,2013-09-18 04:15:00
12:35 AM,56.8,48.2,73,30.20,10.0,Calm,Calm,-,N/A,,Clear,0,2013-09-18 04:35:00
12:54 AM,55.6,48.0,76,30.19,10.0,Calm,Calm,-,N/A,,Clear,0,2013-09-18 04:54:00
1:15 AM,54.9,48.0,78,30.18,10.0,Calm,Calm,-,N/A,,Clear,0,2013-09-18 05:15:00
1:35 AM,54.0,48.0,80,30.18,10.0,Calm,Calm,-,N/A,,Clear,0,2013-09-18 05:35:00
1:54 AM,53.6,47.7,80,30.17,10.0,Calm,Calm,-,N/A,,Clear,0,2013-09-18 05:54:00
2:15 AM,53.2,47.5,81,30.17,10.0,Calm,Calm,-,N/A,,Clear,0,2013-09-18 06:15:00
2:35 AM,52.9,47.3,81,30.17,10.0,Calm,Calm,-,N/A,,Clear,0,2013-09-18 06:35:00
2:55 AM,52.2,47.7,85,30.17,10.0,Calm,Calm,-,N/A,,Clear,0,2013-09-18 06:55:00
3:15 AM,51.3,47.7,87,30.17,10.0,Calm,Calm,-,N/A,,Clear,0,2013-09-18 07:15:00
3:35 AM,51.8,48.2,88,30.16,10.0,Calm,Calm,-,N/A,,Clear,0,2013-09-18 07:35:00
3:55 AM,52.7,48.6,86,30.16,10.0,Calm,Calm,-,N/A,,Clear,0,2013-09-18 07:55:00
4:15 AM,51.8,47.8,86,30.16,10.0,Calm,Calm,-,N/A,,Clear,0,2013-09-18 08:15:00
4:35 AM,52.9,49.1,87,30.15,10.0,Calm,Calm,-,N/A,,Clear,0,2013-09-18 08:35:00
4:55 AM,53.6,49.1,85,30.16,10.0,Calm,Calm,-,N/A,,Clear,0,2013-09-18 08:55:00
5:15 AM,53.1,49.5,88,30.15,10.0,Calm,Calm,-,N/A,,Clear,0,2013-09-18 09:15:00
5:35 AM,54.0,49.6,85,30.15,10.0,Calm,Calm,-,N/A,,Clear,0,2013-09-18 09:35:00
5:55 AM,53.6,49.6,86,30.15,10.0,Calm,Calm,-,N/A,,Clear,0,2013-09-18 09:55:00
6:15 AM,52.9,49.5,88,30.15,10.0,Calm,Calm,-,N/A,,Clear,0,2013-09-18 10:15:00
6:34 AM,52.7,49.5,89,30.15,10.0,Calm,Calm,-,N/A,,Clear,0,2013-09-18 10:34:00
6:55 AM,52.2,49.1,89,30.15,10.0,Calm,Calm,-,N/A,,Clear,0,2013-09-18 10:55:00
7:15 AM,52.3,49.3,89,30.15,10.0,Calm,Calm,-,N/A,,Clear,0,2013-09-18 11:15:00
7:34 AM,51.1,48.4,90,30.15,10.0,Calm,Calm,-,N/A,,Clear,0,2013-09-18 11:34:00
7:55 AM,50.0,47.5,91,30.16,10.0,Calm,Calm,-,N/A,,Clear,0,2013-09-18 11:55:00
8:14 AM,50.5,48.6,93,30.16,10.0,Calm,Calm,-,N/A,,Clear,0,2013-09-18 12:14:00
8:35 AM,52.2,50.0,92,30.16,10.0,Calm,Calm,-,N/A,,Clear,0,2013-09-18 12:35:00
8:55 AM,57.6,53.8,87,30.15,10.0,NE,3.5,-,N/A,,Clear,50,2013-09-18 12:55:00
9:15 AM,60.8,52.7,75,30.15,10.0,SSE,5.8,-,N/A,,Clear,150,2013-09-18 13:15:00
9:35 AM,60.8,52.9,75,30.16,10.0,SSE,3.5,-,N/A,,Scattered Clouds,160,2013-09-18 13:35:00
9:55 AM,61.7,53.1,73,30.16,10.0,South,3.5,-,N/A,,Clear,180,2013-09-18 13:55:00
10:15 AM,62.1,53.6,74,30.16,10.0,South,4.6,-,N/A,,Clear,180,2013-09-18 14:15:00
10:35 AM,63.3,53.8,71,30.15,10.0,South,4.6,-,N/A,,Clear,190,2013-09-18 14:35:00
10:55 AM,65.5,54.5,68,30.15,10.0,South,8.1,-,N/A,,Clear,170,2013-09-18 14:55:00
11:15 AM,67.5,55.0,64,30.15,10.0,South,5.8,-,N/A,,Scattered Clouds,190,2013-09-18 15:15:00
11:35 AM,69.1,55.4,62,30.14,10.0,SSE,4.6,-,N/A,,Scattered Clouds,150,2013-09-18 15:35:00
11:55 AM,72.5,55.4,55,30.13,10.0,SSE,3.5,-,N/A,,Scattered Clouds,150,2013-09-18 15:55:00
12:15 PM,74.8,54.3,49,30.12,10.0,SW,5.8,-,N/A,,Scattered Clouds,220,2013-09-18 16:15:00
12:35 PM,75.4,51.3,43,30.11,10.0,South,3.5,-,N/A,,Clear,190,2013-09-18 16:35:00
12:55 PM,77.2,51.8,41,30.11,10.0,SSE,6.9,-,N/A,,Scattered Clouds,150,2013-09-18 16:55:00
1:15 PM,77.5,50.5,39,30.10,10.0,South,5.8,-,N/A,,Clear,190,2013-09-18 17:15:00
1:34 PM,78.1,50.2,38,30.10,10.0,SE,4.6,-,N/A,,Scattered Clouds,140,2013-09-18 17:34:00
1:55 PM,78.1,49.1,36,30.10,10.0,SSW,9.2,-,N/A,,Mostly Cloudy,200,2013-09-18 17:55:00
2:15 PM,78.8,47.3,33,30.09,10.0,South,6.9,-,N/A,,Overcast,190,2013-09-18 18:15:00
2:34 PM,80.2,46.6,31,30.08,10.0,SSE,8.1,-,N/A,,Scattered Clouds,150,2013-09-18 18:34:00
2:55 PM,81.0,46.9,30,30.07,10.0,South,9.2,-,N/A,,Clear,170,2013-09-18 18:55:00
3:15 PM,80.2,45.7,30,30.07,10.0,South,4.6,-,N/A,,Clear,190,2013-09-18 19:15:00
3:35 PM,80.8,46.9,30,30.06,10.0,SW,6.9,-,N/A,,Scattered Clouds,230,2013-09-18 19:35:00
3:55 PM,81.5,46.4,29,30.05,10.0,SSW,10.4,-,N/A,,Mostly Cloudy,210,2013-09-18 19:55:00
4:15 PM,80.8,45.9,29,30.04,10.0,South,3.5,16.1,N/A,,Scattered Clouds,190,2013-09-18 20:15:00
4:35 PM,81.0,46.8,30,30.03,10.0,South,6.9,-,N/A,,Clear,170,2013-09-18 20:35:00
4:55 PM,80.4,46.9,31,30.03,10.0,South,6.9,-,N/A,,Clear,190,2013-09-18 20:55:00
5:15 PM,79.7,48.0,33,30.03,10.0,South,6.9,-,N/A,,Clear,170,2013-09-18 21:15:00
5:35 PM,80.6,47.7,31,30.03,10.0,South,10.4,-,N/A,,Clear,180,2013-09-18 21:35:00
5:55 PM,78.8,48.7,35,30.03,10.0,South,9.2,-,N/A,,Scattered Clouds,190,2013-09-18 21:55:00
6:15 PM,79.9,50.2,35,30.02,10.0,South,9.2,-,N/A,,Scattered Clouds,190,2013-09-18 22:15:00
6:35 PM,78.8,53.6,42,30.02,10.0,SSW,9.2,-,N/A,,Clear,210,2013-09-18 22:35:00
6:55 PM,77.9,53.6,43,30.02,10.0,SSW,8.1,-,N/A,,Clear,200,2013-09-18 22:55:00
7:15 PM,75.6,54.1,47,30.02,10.0,South,5.8,-,N/A,,Clear,180,2013-09-18 23:15:00
7:35 PM,74.7,54.0,48,30.02,10.0,South,4.6,-,N/A,,Clear,190,2013-09-18 23:35:00
7:54 PM,72.3,54.5,53,30.02,10.0,South,4.6,-,N/A,,Clear,180,2013-09-18 23:54:00
8:15 PM,72.5,54.5,53,30.02,10.0,South,5.8,-,N/A,,Clear,170,2013-09-19 00:15:00
8:35 PM,72.5,54.9,54,30.02,10.0,SSE,4.6,-,N/A,,Clear,160,2013-09-19 00:35:00
8:54 PM,72.7,55.4,55,30.01,10.0,SE,5.8,-,N/A,,Clear,140,2013-09-19 00:54:00
9:15 PM,72.0,55.6,56,30.01,10.0,SSE,4.6,-,N/A,,Clear,150,2013-09-19 01:15:00
9:35 PM,69.6,56.3,63,30.02,10.0,Calm,Calm,-,N/A,,Scattered Clouds,0,2013-09-19 01:35:00
9:55 PM,69.1,56.5,64,30.02,10.0,SSE,3.5,-,N/A,,Scattered Clouds,160,2013-09-19 01:55:00
10:15 PM,69.6,56.3,63,30.02,10.0,SSE,3.5,-,N/A,,Scattered Clouds,160,2013-09-19 02:15:00
10:34 PM,70.2,55.4,59,30.03,10.0,Calm,Calm,-,N/A,,Scattered Clouds,0,2013-09-19 02:34:00
10:55 PM,70.0,54.9,59,30.03,10.0,SSE,3.5,-,N/A,,Clear,160,2013-09-19 02:55:00
11:15 PM,70.3,54.5,57,30.03,10.0,SSE,4.6,-,N/A,,Scattered Clouds,160,2013-09-19 03:15:00
11:35 PM,70.9,54.5,56,30.03,10.0,SSE,4.6,-,N/A,,Scattered Clouds,150,2013-09-19 03:35:00
11:55 PM,70.5,54.5,57,30.02,10.0,South,4.6,-,N/A,,Clear,170,2013-09-19 03:55:00